Aviation Digital Data Service (ADDS)

Output produced by METARs form (0732 UTC 20 October 2018)
found at http://www.aviationweather.gov/metar/data/
 
VQPR 200630Z 25006KT 9999 SCT040 22/00 Q1021